createdAt,value
2023-02-23T06:35:17.850Z,100214.41
2023-02-23T06:38:21.130Z,100221.13
2023-02-23T06:46:22.937Z,100230.19
2023-02-23T06:49:25.507Z,100230.78
2023-02-23T06:52:27.956Z,100235.06
2023-02-23T06:55:30.542Z,100245.50
2023-02-23T06:58:33.230Z,100236.75
2023-02-23T07:01:37.048Z,100244.47
2023-02-23T07:04:39.686Z,100244.38
2023-02-23T07:07:42.181Z,100246.88
2023-02-23T07:10:45.390Z,100249.44
2023-02-23T07:13:47.849Z,100253.56
2023-02-23T07:16:51.704Z,100250.66
2023-02-23T07:19:54.185Z,100251.97
2023-02-23T07:22:56.648Z,100255.41
2023-02-23T07:26:00.911Z,100265.84
2023-02-23T07:29:03.584Z,100261.31
2023-02-23T07:32:07.574Z,100263.00
2023-02-23T07:35:10.749Z,100258.63
2023-02-23T07:38:13.615Z,100261.78
2023-02-23T07:41:16.321Z,100252.22
2023-02-23T07:44:18.842Z,100249.88
2023-02-23T07:47:23.008Z,100251.13
2023-02-23T07:50:25.484Z,100253.03
2023-02-23T07:53:28.273Z,100249.97
2023-02-23T07:56:30.702Z,100250.63
2023-02-23T07:59:33.191Z,100247.78
2023-02-23T08:02:37.022Z,100251.91
2023-02-23T08:05:40.080Z,100244.25
2023-02-23T08:08:42.592Z,100250.56
2023-02-23T08:11:45.096Z,100251.38
2023-02-23T08:14:47.580Z,100245.16
2023-02-23T08:17:51.363Z,100245.78
2023-02-23T08:20:59.057Z,100236.28
2023-02-23T08:24:01.537Z,100249.13
2023-02-23T08:27:04.334Z,100237.50
2023-02-23T08:30:09.811Z,100239.00
2023-02-23T08:33:13.611Z,100233.66
2023-02-23T08:36:16.073Z,100237.31
2023-02-23T08:39:18.906Z,100239.00
2023-02-23T08:42:21.353Z,100229.13
2023-02-23T08:45:23.819Z,100230.63
2023-02-23T08:48:27.655Z,100233.25
2023-02-23T08:51:30.118Z,100228.16
2023-02-23T08:54:32.582Z,100230.41
2023-02-23T08:57:35.520Z,100222.53
2023-02-23T09:00:38.015Z,100228.91
2023-02-23T09:03:41.825Z,100221.63
2023-02-23T09:06:44.255Z,100220.91
2023-02-23T09:09:46.710Z,100219.63
2023-02-23T09:12:49.200Z,100219.88
2023-02-23T09:15:51.662Z,100215.28
2023-02-23T09:18:55.930Z,100213.16
2023-02-23T09:21:58.371Z,100214.84
2023-02-23T09:25:00.856Z,100211.00
2023-02-23T09:28:03.355Z,100213.72
2023-02-23T09:31:07.385Z,100208.91
2023-02-23T09:34:12.649Z,100210.34
2023-02-23T09:37:15.570Z,100208.38
2023-02-23T09:40:21.888Z,100212.00
2023-02-23T09:43:31.718Z,100215.31
2023-02-23T09:46:43.953Z,100227.72
2023-02-23T09:49:50.774Z,100226.91
2023-02-23T09:52:58.329Z,100226.75
2023-02-23T09:56:04.238Z,100228.00
2023-02-23T09:59:10.011Z,100219.09
2023-02-23T10:02:24.062Z,100217.63
2023-02-23T10:05:31.781Z,100223.75
2023-02-23T10:08:56.534Z,100223.56
2023-02-23T10:12:07.216Z,100215.06
2023-02-23T10:15:25.473Z,100213.97
2023-02-23T10:18:46.578Z,100213.78
2023-02-23T10:21:56.926Z,100219.28
2023-02-23T10:25:06.385Z,100219.59
2023-02-23T10:28:14.118Z,100219.84
2023-02-23T10:31:38.312Z,100217.56
2023-02-23T10:34:42.065Z,100217.81
2023-02-23T10:37:46.719Z,100219.78
2023-02-23T10:40:57.683Z,100219.13
2023-02-23T10:44:10.936Z,100210.88
2023-02-23T10:47:22.206Z,100210.69
2023-02-23T10:50:27.566Z,100212.25
2023-02-23T10:53:36.060Z,100204.63
2023-02-23T10:56:45.154Z,100204.34
2023-02-23T11:00:27.586Z,100207.06
2023-02-23T11:03:34.459Z,100194.47
2023-02-23T11:06:39.581Z,100193.03
2023-02-23T11:09:47.403Z,100198.16
2023-02-23T11:12:50.553Z,100195.47
2023-02-23T11:16:01.997Z,100188.28
2023-02-23T11:19:07.000Z,100190.06
2023-02-23T11:22:23.364Z,100188.31
2023-02-23T11:25:31.226Z,100186.78
2023-02-23T11:28:36.943Z,100187.13
2023-02-23T11:31:40.696Z,100180.81
2023-02-23T11:34:44.875Z,100179.53
2023-02-23T11:37:47.893Z,100177.66
2023-02-23T11:41:01.506Z,100171.16
2023-02-23T11:44:06.432Z,100172.78
2023-02-23T11:47:17.322Z,100166.13
2023-02-23T11:50:25.366Z,100168.59
2023-02-23T11:53:32.748Z,100168.59
2023-02-23T11:56:37.048Z,100164.59
2023-02-23T11:59:42.046Z,100162.06
2023-02-23T12:02:50.811Z,100158.44
2023-02-23T12:05:57.644Z,100156.16
2023-02-23T12:09:06.743Z,100151.22
2023-02-23T12:12:15.763Z,100149.84
2023-02-23T12:15:27.309Z,100145.59
2023-02-23T12:18:39.717Z,100144.47
2023-02-23T12:21:46.148Z,100143.94
2023-02-23T12:24:53.552Z,100136.34
2023-02-23T12:28:18.086Z,100132.38
2023-02-23T12:31:27.097Z,100133.84
2023-02-23T12:34:34.602Z,100135.06
2023-02-23T12:37:42.122Z,100134.72
2023-02-23T12:40:45.796Z,100137.66
2023-02-23T12:43:54.901Z,100134.38
2023-02-23T12:47:04.509Z,100130.09
2023-02-23T12:50:13.563Z,100130.19
2023-02-23T12:53:22.844Z,100120.00
2023-02-23T12:56:41.474Z,100120.34
2023-02-23T13:00:24.134Z,100125.88
2023-02-23T13:03:38.846Z,100113.88
2023-02-23T13:06:51.632Z,100102.16
2023-02-23T13:10:06.469Z,100110.78
2023-02-23T13:13:22.047Z,100113.72
2023-02-23T13:16:31.928Z,100101.69
2023-02-23T13:19:42.454Z,100100.75
2023-02-23T13:22:50.810Z,100105.19
2023-02-23T13:26:00.629Z,100103.50
2023-02-23T13:29:08.121Z,100092.53
2023-02-23T13:32:13.722Z,100101.66
2023-02-23T13:35:19.088Z,100103.06
2023-02-23T13:38:27.350Z,100104.63
2023-02-23T13:41:38.688Z,100105.91
2023-02-23T13:44:49.248Z,100103.50
2023-02-23T13:47:58.147Z,100102.84
2023-02-23T13:51:07.012Z,100097.75
2023-02-23T13:54:24.757Z,100098.97
2023-02-23T13:57:28.941Z,100107.47
2023-02-23T14:00:32.579Z,100107.41
2023-02-23T14:03:42.132Z,100108.34
2023-02-23T14:06:56.454Z,100098.66
2023-02-23T14:10:01.910Z,100103.78
2023-02-23T14:13:07.827Z,100098.50
2023-02-23T14:16:14.716Z,100101.56
2023-02-23T14:19:41.852Z,100097.41
2023-02-23T14:23:14.697Z,100095.00
2023-02-23T14:26:36.496Z,100093.56
2023-02-23T14:29:41.350Z,100091.66
2023-02-23T14:32:45.805Z,100092.38
2023-02-23T14:35:50.664Z,100086.03
2023-02-23T14:39:01.262Z,100086.78
2023-02-23T14:42:07.439Z,100087.03
2023-02-23T14:45:19.986Z,100092.63
2023-02-23T14:48:23.520Z,100087.28
2023-02-23T14:51:42.303Z,100087.44
2023-02-23T14:54:45.072Z,100090.41
2023-02-23T14:57:47.614Z,100084.38
2023-02-23T15:00:52.037Z,100086.06
2023-02-23T15:04:06.930Z,100086.16
2023-02-23T15:07:18.767Z,100084.00
2023-02-23T15:10:23.311Z,100086.84
2023-02-23T15:13:29.960Z,100080.91
2023-02-23T15:16:35.486Z,100089.19
2023-02-23T15:19:39.315Z,100082.69
2023-02-23T15:22:44.089Z,100081.38
2023-02-23T15:25:50.967Z,100079.59
2023-02-23T15:28:54.445Z,100084.94
2023-02-23T15:31:58.099Z,100075.50
2023-02-23T15:35:03.619Z,100072.25
2023-02-23T15:38:24.719Z,100071.38
2023-02-23T15:41:36.905Z,100076.00
2023-02-23T15:44:44.869Z,100075.78
2023-02-23T15:47:48.302Z,100072.81
2023-02-23T15:50:53.832Z,100065.16
2023-02-23T15:53:58.243Z,100057.53
2023-02-23T15:57:05.298Z,100058.72
2023-02-23T16:00:19.752Z,100059.66
2023-02-23T16:03:31.643Z,100053.94
2023-02-23T16:06:36.476Z,100053.00
2023-02-23T16:09:49.774Z,100052.38
2023-02-23T16:12:54.745Z,100052.69
2023-02-23T16:15:57.970Z,100048.56
